createdAt,value
2023-05-24T00:00:50.413Z,28.53
2023-05-24T00:01:50.388Z,28.54
2023-05-24T00:02:50.448Z,27.88
2023-05-24T00:03:50.474Z,29.69
2023-05-24T00:04:50.425Z,28.53
2023-05-24T00:05:50.431Z,28.50
2023-05-24T00:06:50.348Z,30.47
2023-05-24T00:07:50.335Z,30.45
2023-05-24T00:08:50.341Z,30.76
2023-05-24T00:09:50.333Z,27.83
2023-05-24T00:10:50.322Z,28.19
2023-05-24T00:11:50.326Z,28.28
2023-05-24T00:12:50.310Z,29.23
2023-05-24T00:13:50.305Z,28.71
2023-05-24T00:14:50.299Z,28.45
2023-05-24T00:15:50.292Z,28.93
2023-05-24T00:16:50.314Z,30.03
2023-05-24T00:17:50.301Z,28.01
2023-05-24T00:18:50.276Z,29.44
2023-05-24T00:19:50.260Z,28.81
2023-05-24T00:20:50.280Z,28.34
2023-05-24T00:21:50.232Z,29.94
2023-05-24T00:22:50.262Z,29.36
2023-05-24T00:23:50.246Z,30.60
2023-05-24T00:24:50.272Z,31.72
2023-05-24T00:25:50.348Z,28.29
2023-05-24T00:26:50.210Z,27.68
2023-05-24T00:27:50.231Z,29.08
2023-05-24T00:28:50.212Z,26.06
2023-05-24T00:29:50.190Z,27.45
2023-05-24T00:30:50.209Z,29.77
2023-05-24T00:31:50.169Z,28.97
2023-05-24T00:32:50.210Z,27.98
2023-05-24T00:33:50.176Z,26.61
2023-05-24T00:34:50.147Z,29.64
2023-05-24T00:35:50.185Z,25.38
2023-05-24T00:36:50.162Z,28.06
2023-05-24T00:37:50.144Z,26.99
2023-05-24T00:38:50.116Z,29.60
2023-05-24T00:39:50.134Z,25.96
2023-05-24T00:40:50.176Z,27.67
2023-05-24T00:41:50.101Z,25.00
2023-05-24T00:42:50.117Z,28.31
2023-05-24T00:43:50.120Z,26.62
2023-05-24T00:44:50.116Z,26.30
2023-05-24T00:45:50.130Z,29.15
2023-05-24T00:46:50.054Z,26.47
2023-05-24T00:47:50.105Z,28.12
2023-05-24T00:48:50.068Z,28.50
2023-05-24T00:49:50.057Z,27.57
2023-05-24T00:50:50.056Z,26.67
2023-05-24T00:51:50.043Z,27.20
2023-05-24T00:52:50.046Z,28.72
2023-05-24T00:53:50.024Z,28.94
2023-05-24T00:54:50.033Z,29.87
2023-05-24T00:55:50.025Z,30.61
2023-05-24T00:56:50.002Z,29.21
2023-05-24T00:57:50.022Z,30.82
2023-05-24T00:58:49.978Z,30.29
2023-05-24T00:59:49.988Z,29.66
2023-05-24T01:00:49.952Z,26.63
2023-05-24T01:01:50.043Z,28.32
2023-05-24T01:02:49.987Z,26.24
2023-05-24T01:03:50.073Z,29.40
2023-05-24T01:04:49.950Z,29.17
2023-05-24T01:05:49.973Z,29.10
2023-05-24T01:06:49.939Z,30.04
2023-05-24T01:07:49.959Z,27.37
2023-05-24T01:08:49.902Z,28.30
2023-05-24T01:09:49.910Z,27.59
2023-05-24T01:10:49.918Z,32.34
2023-05-24T01:11:49.863Z,28.23
2023-05-24T01:12:49.881Z,28.93
2023-05-24T01:13:49.887Z,29.37
2023-05-24T01:14:49.850Z,27.67
2023-05-24T01:15:49.895Z,26.48
2023-05-24T01:16:49.864Z,27.76
2023-05-24T01:17:49.916Z,26.53
2023-05-24T01:18:49.847Z,27.19
2023-05-24T01:19:50.030Z,27.20
2023-05-24T01:20:49.916Z,27.01
2023-05-24T01:21:49.841Z,27.11
2023-05-24T01:22:49.831Z,30.10
2023-05-24T01:23:49.837Z,28.45
2023-05-24T01:24:49.793Z,30.59
2023-05-24T01:25:49.883Z,27.98
2023-05-24T01:26:49.771Z,28.48
2023-05-24T01:27:49.799Z,30.13
2023-05-24T01:28:49.757Z,27.70
2023-05-24T01:29:49.739Z,28.85
2023-05-24T01:30:49.819Z,29.70
2023-05-24T01:31:49.794Z,25.07
2023-05-24T01:32:49.742Z,29.57
2023-05-24T01:33:49.723Z,28.54
2023-05-24T01:34:49.730Z,25.99
2023-05-24T01:35:49.761Z,27.44
2023-05-24T01:36:49.721Z,25.38
2023-05-24T01:37:49.706Z,28.03
2023-05-24T01:38:49.706Z,29.82
2023-05-24T01:39:49.686Z,27.22
2023-05-24T01:40:49.783Z,29.90
2023-05-24T01:41:49.679Z,28.84
2023-05-24T01:42:49.679Z,28.66
2023-05-24T01:43:49.682Z,29.43
2023-05-24T01:44:49.684Z,28.69
2023-05-24T01:45:49.688Z,26.70
2023-05-24T01:46:49.682Z,30.07
2023-05-24T01:47:49.674Z,27.56
2023-05-24T01:48:49.642Z,32.38
2023-05-24T01:49:49.648Z,27.92
2023-05-24T01:50:49.635Z,29.96
2023-05-24T01:51:49.683Z,27.84
2023-05-24T01:52:49.598Z,29.57
2023-05-24T01:53:49.569Z,29.27
2023-05-24T01:54:49.582Z,31.44
2023-05-24T01:55:49.597Z,29.57
2023-05-24T01:56:49.571Z,29.44
2023-05-24T01:57:49.577Z,28.26
2023-05-24T01:58:49.550Z,27.70
2023-05-24T01:59:49.540Z,29.00
2023-05-24T02:00:49.581Z,27.89
2023-05-24T02:01:49.570Z,28.04
2023-05-24T02:02:49.670Z,26.10
2023-05-24T02:03:49.524Z,27.54
2023-05-24T02:04:49.556Z,26.50
2023-05-24T02:05:49.488Z,30.75
2023-05-24T02:06:49.498Z,28.83
2023-05-24T02:07:49.522Z,29.11
2023-05-24T02:08:49.506Z,27.63
2023-05-24T02:09:49.492Z,29.67
2023-05-24T02:10:49.499Z,26.62
2023-05-24T02:11:49.502Z,28.16
2023-05-24T02:12:49.494Z,28.32
2023-05-24T02:13:49.453Z,26.48
2023-05-24T02:14:49.498Z,26.21
2023-05-24T02:15:49.493Z,28.59
2023-05-24T02:16:49.557Z,27.70
2023-05-24T02:17:49.556Z,27.79
2023-05-24T02:18:49.542Z,26.87
2023-05-24T02:19:49.618Z,27.32
2023-05-24T02:20:49.613Z,26.20
2023-05-24T02:21:49.621Z,28.65
2023-05-24T02:22:49.634Z,27.89
2023-05-24T02:23:49.683Z,29.06
2023-05-24T02:24:49.659Z,27.57
2023-05-24T02:25:49.693Z,26.71
2023-05-24T02:26:49.702Z,28.23
2023-05-24T02:27:49.721Z,25.00
2023-05-24T02:28:49.724Z,27.06
2023-05-24T02:29:49.756Z,29.13
2023-05-24T02:30:49.811Z,26.98
2023-05-24T02:31:49.789Z,27.63
2023-05-24T02:32:49.882Z,29.82
2023-05-24T02:33:49.835Z,26.30
2023-05-24T02:34:49.861Z,28.35
2023-05-24T02:35:49.861Z,26.27
2023-05-24T02:36:49.915Z,26.95
2023-05-24T02:37:49.926Z,27.13
2023-05-24T02:38:49.951Z,27.97
2023-05-24T02:39:49.983Z,28.74
2023-05-24T02:40:49.995Z,28.41
2023-05-24T02:41:50.040Z,25.25
2023-05-24T02:42:50.041Z,27.92
2023-05-24T02:43:50.062Z,28.75
2023-05-24T02:44:50.055Z,27.13
2023-05-24T02:45:50.204Z,26.93
2023-05-24T02:46:50.095Z,26.08
2023-05-24T02:47:50.172Z,26.35
2023-05-24T02:48:50.162Z,30.08
2023-05-24T02:49:50.185Z,27.15
2023-05-24T02:50:50.178Z,27.96
2023-05-24T02:51:50.189Z,27.40
2023-05-24T02:52:50.269Z,28.38
2023-05-24T02:53:50.237Z,27.84
2023-05-24T02:54:50.289Z,27.42
2023-05-24T02:55:50.312Z,26.95
2023-05-24T02:56:50.288Z,27.15
2023-05-24T02:57:50.300Z,30.55
2023-05-24T02:58:50.343Z,28.66
2023-05-24T02:59:50.352Z,28.18
2023-05-24T03:00:50.410Z,31.17
2023-05-24T03:01:50.431Z,26.35
2023-05-24T03:02:50.546Z,28.37
2023-05-24T03:03:50.545Z,29.83
2023-05-24T03:04:50.482Z,30.13
2023-05-24T03:05:50.494Z,30.82
2023-05-24T03:06:50.516Z,30.35
2023-05-24T03:07:50.548Z,32.92
2023-05-24T03:08:50.583Z,28.15
2023-05-24T03:09:50.621Z,30.22
2023-05-24T03:10:50.622Z,25.00
2023-05-24T03:11:50.670Z,29.36
2023-05-24T03:12:50.671Z,28.27
2023-05-24T03:13:50.699Z,31.01
2023-05-24T03:14:50.725Z,31.96
2023-05-24T03:15:50.825Z,29.98
2023-05-24T03:16:50.795Z,26.85
2023-05-24T03:17:50.848Z,29.05
2023-05-24T03:18:50.878Z,29.68
2023-05-24T03:19:50.886Z,28.03
2023-05-24T03:20:50.899Z,27.45
2023-05-24T03:21:50.933Z,26.84
2023-05-24T03:22:50.914Z,29.57
2023-05-24T03:23:50.973Z,27.24
2023-05-24T03:24:50.965Z,29.16
2023-05-24T03:25:51.034Z,29.91
2023-05-24T03:26:51.045Z,30.15
2023-05-24T03:27:51.053Z,31.06
2023-05-24T03:28:51.074Z,26.48
2023-05-24T03:29:51.124Z,26.62
2023-05-24T03:30:51.162Z,30.45
2023-05-24T03:31:51.145Z,25.84
2023-05-24T03:32:51.231Z,26.76
2023-05-24T03:33:51.196Z,29.96
2023-05-24T03:34:51.250Z,28.52
2023-05-24T03:35:51.250Z,27.26
2023-05-24T03:36:51.290Z,26.75
2023-05-24T03:37:51.331Z,28.01
2023-05-24T03:38:51.361Z,25.73
2023-05-24T03:39:51.369Z,28.72
2023-05-24T03:40:51.397Z,28.02
2023-05-24T03:41:51.437Z,25.94
2023-05-24T03:42:51.434Z,28.88
2023-05-24T03:43:51.464Z,27.79
2023-05-24T03:44:51.485Z,29.07
2023-05-24T03:45:51.565Z,27.33
2023-05-24T03:46:51.539Z,28.09
2023-05-24T03:47:51.611Z,31.10
2023-05-24T03:48:51.592Z,27.07
2023-05-24T03:49:51.594Z,26.62
2023-05-24T03:50:51.631Z,27.02
2023-05-24T03:51:51.684Z,27.02
2023-05-24T03:52:51.680Z,26.24
2023-05-24T03:53:51.719Z,28.23
2023-05-24T03:54:51.754Z,28.04
2023-05-24T03:55:51.767Z,29.58
2023-05-24T03:56:51.759Z,29.60
2023-05-24T03:57:51.831Z,27.28
2023-05-24T03:58:51.827Z,28.41
2023-05-24T03:59:51.860Z,27.61
2023-05-24T04:00:51.907Z,30.43
2023-05-24T04:01:51.976Z,29.14
2023-05-24T04:02:52.070Z,25.00
2023-05-24T04:03:52.040Z,29.86
2023-05-24T04:04:51.994Z,26.04
2023-05-24T04:05:52.045Z,29.02
2023-05-24T04:06:52.079Z,27.00
2023-05-24T04:07:52.088Z,25.65
2023-05-24T04:08:52.126Z,27.31
2023-05-24T04:09:52.159Z,26.07
2023-05-24T04:10:52.163Z,29.44
2023-05-24T04:11:52.175Z,29.63
2023-05-24T04:12:52.218Z,27.29
2023-05-24T04:13:52.236Z,26.55
2023-05-24T04:14:52.313Z,26.90
2023-05-24T04:15:52.353Z,28.16
2023-05-24T04:16:52.398Z,26.38
2023-05-24T04:17:52.439Z,25.70
2023-05-24T04:18:52.591Z,27.14
2023-05-24T04:19:52.437Z,28.61
2023-05-24T04:20:52.494Z,28.14
2023-05-24T04:21:52.496Z,25.13
2023-05-24T04:22:52.525Z,27.85
2023-05-24T04:23:52.602Z,29.82
2023-05-24T04:24:52.758Z,28.22
2023-05-24T04:25:52.609Z,27.45
2023-05-24T04:26:52.624Z,28.48
2023-05-24T04:27:52.673Z,27.06
2023-05-24T04:28:52.697Z,28.73
2023-05-24T04:29:52.734Z,27.47
2023-05-24T04:30:52.773Z,26.56
2023-05-24T04:31:52.802Z,27.51
2023-05-24T04:32:52.898Z,28.11
2023-05-24T04:33:52.865Z,26.84
2023-05-24T04:34:52.870Z,30.39
2023-05-24T04:35:52.935Z,29.37
2023-05-24T04:36:52.947Z,31.08
2023-05-24T04:37:52.969Z,27.96
2023-05-24T04:38:52.999Z,30.24
2023-05-24T04:39:53.036Z,25.39
2023-05-24T04:40:53.031Z,25.81
2023-05-24T04:41:53.081Z,28.14
2023-05-24T04:42:53.127Z,27.96
2023-05-24T04:43:53.129Z,27.28
2023-05-24T04:44:53.184Z,25.39
2023-05-24T04:45:53.214Z,29.17
2023-05-24T04:46:53.254Z,27.81
2023-05-24T04:47:53.281Z,26.82
2023-05-24T04:48:53.256Z,28.21
2023-05-24T04:49:53.301Z,30.09
2023-05-24T04:50:53.345Z,29.54
2023-05-24T04:51:55.119Z,26.27
2023-05-24T04:52:53.411Z,28.40
2023-05-24T04:53:53.432Z,29.83
2023-05-24T04:54:53.447Z,25.00
2023-05-24T04:55:53.502Z,25.61
2023-05-24T04:56:53.514Z,27.82
2023-05-24T04:57:53.549Z,28.31
2023-05-24T04:58:53.580Z,25.16
2023-05-24T04:59:53.618Z,28.18
2023-05-24T05:00:53.637Z,25.57
2023-05-24T05:01:53.689Z,28.81
2023-05-24T05:02:53.747Z,25.49
2023-05-24T05:03:53.703Z,26.40
2023-05-24T05:04:53.713Z,27.90
2023-05-24T05:05:53.769Z,30.10
2023-05-24T05:06:53.762Z,27.95
2023-05-24T05:07:53.818Z,26.50
2023-05-24T05:08:53.879Z,26.39
2023-05-24T05:09:53.864Z,30.02
2023-05-24T05:10:53.879Z,28.59
2023-05-24T05:11:53.890Z,29.94
2023-05-24T05:12:53.947Z,27.27
2023-05-24T05:13:53.999Z,28.72
2023-05-24T05:14:53.984Z,29.49
2023-05-24T05:15:54.020Z,27.18
2023-05-24T05:16:54.207Z,27.28
2023-05-24T05:17:54.149Z,28.50
2023-05-24T05:18:54.121Z,29.45
2023-05-24T05:19:54.176Z,29.27
2023-05-24T05:20:54.192Z,29.91
2023-05-24T05:21:54.214Z,28.44
2023-05-24T05:22:54.263Z,26.93
2023-05-24T05:23:54.270Z,27.93
2023-05-24T05:24:54.272Z,27.44
2023-05-24T05:25:54.307Z,30.32
2023-05-24T05:26:54.363Z,28.03
2023-05-24T05:27:54.396Z,30.65
2023-05-24T05:28:54.390Z,28.62
2023-05-24T05:29:54.416Z,28.60
2023-05-24T05:30:54.438Z,32.35
2023-05-24T05:31:54.517Z,26.95
2023-05-24T05:32:54.619Z,28.40
2023-05-24T05:33:54.535Z,27.61
2023-05-24T05:34:54.547Z,28.96
2023-05-24T05:35:55.080Z,28.90
2023-05-24T05:36:54.617Z,27.30
2023-05-24T05:37:54.664Z,26.90
2023-05-24T05:38:54.753Z,28.50
2023-05-24T05:39:54.740Z,29.66
2023-05-24T05:40:54.794Z,28.93
2023-05-24T05:41:54.758Z,28.07
2023-05-24T05:42:54.809Z,31.07
2023-05-24T05:43:54.849Z,31.22
2023-05-24T05:44:54.893Z,29.76
2023-05-24T05:45:54.917Z,28.28
2023-05-24T05:46:54.953Z,27.59
2023-05-24T05:47:54.965Z,27.81
2023-05-24T05:48:55.018Z,28.83
2023-05-24T05:49:55.028Z,30.45
2023-05-24T05:50:55.077Z,32.31
2023-05-24T05:51:55.100Z,33.29
2023-05-24T05:52:55.137Z,31.03
2023-05-24T05:53:55.160Z,32.32
2023-05-24T05:54:55.231Z,34.22
2023-05-24T05:55:55.253Z,37.43
2023-05-24T05:56:55.223Z,37.59
2023-05-24T05:57:55.245Z,34.84
2023-05-24T05:58:55.292Z,33.52
2023-05-24T05:59:55.352Z,27.64
2023-05-24T06:00:55.459Z,39.52
2023-05-24T06:01:55.393Z,46.53
2023-05-24T06:02:55.511Z,66.63
2023-05-24T06:03:55.611Z,67.81
2023-05-24T06:04:55.632Z,64.50
2023-05-24T06:05:55.511Z,71.42
2023-05-24T06:06:55.516Z,77.56
2023-05-24T06:07:55.529Z,79.92
2023-05-24T06:08:55.531Z,85.34
2023-05-24T06:09:55.565Z,91.39
2023-05-24T06:10:55.720Z,94.47
2023-05-24T06:11:55.703Z,103.70
2023-05-24T06:12:55.744Z,111.58
2023-05-24T06:13:55.814Z,116.69
2023-05-24T06:14:55.851Z,124.73
2023-05-24T06:15:55.922Z,126.19
2023-05-24T06:16:57.813Z,132.44
2023-05-24T06:17:55.928Z,135.68
2023-05-24T06:19:05.470Z,139.55
2023-05-24T06:19:56.898Z,140.56
2023-05-24T06:20:55.869Z,142.18
2023-05-24T06:21:55.856Z,143.66
2023-05-24T06:22:55.869Z,151.48
2023-05-24T06:23:55.894Z,156.30
2023-05-24T06:24:56.532Z,161.91
2023-05-24T06:25:55.880Z,167.20
2023-05-24T06:26:55.853Z,168.46
2023-05-24T06:27:55.827Z,170.00
2023-05-24T06:28:55.802Z,166.56
2023-05-24T06:29:55.839Z,170.15
2023-05-24T06:30:55.842Z,172.87
2023-05-24T06:31:55.861Z,163.35
2023-05-24T06:32:55.837Z,152.17
2023-05-24T06:34:03.868Z,162.66
2023-05-24T06:34:56.794Z,163.12
2023-05-24T06:35:55.782Z,163.59
2023-05-24T06:36:55.765Z,161.99
2023-05-24T06:37:55.726Z,150.06
2023-05-24T06:38:55.760Z,147.70
2023-05-24T06:39:55.752Z,143.45
2023-05-24T06:40:55.733Z,142.00
2023-05-24T06:41:55.763Z,149.89
2023-05-24T06:42:55.701Z,140.03
2023-05-24T06:43:55.728Z,138.31
2023-05-24T06:44:55.684Z,138.72
2023-05-24T06:45:55.718Z,137.76
2023-05-24T06:46:55.782Z,135.78
2023-05-24T06:47:55.734Z,139.42
2023-05-24T06:48:55.825Z,130.84
2023-05-24T06:49:55.637Z,131.78
2023-05-24T06:50:55.646Z,130.59
2023-05-24T06:51:55.664Z,128.60
2023-05-24T06:52:55.645Z,106.86
2023-05-24T06:53:55.627Z,99.48
2023-05-24T06:54:55.656Z,110.99
2023-05-24T06:55:57.609Z,97.60
2023-05-24T06:56:55.702Z,102.93
2023-05-24T06:57:55.706Z,81.95
2023-05-24T06:58:55.726Z,78.40
2023-05-24T06:59:55.760Z,60.06
2023-05-24T07:00:55.817Z,57.71
2023-05-24T07:01:55.800Z,61.08
2023-05-24T07:02:55.894Z,63.28
2023-05-24T07:03:55.867Z,58.40
2023-05-24T07:04:56.114Z,61.98
2023-05-24T07:05:55.973Z,56.14
2023-05-24T07:06:56.043Z,54.08
2023-05-24T07:07:56.077Z,59.93
2023-05-24T07:08:56.139Z,51.50
2023-05-24T07:09:56.208Z,56.37
2023-05-24T07:10:56.275Z,58.18
2023-05-24T07:11:56.346Z,53.30
2023-05-24T07:12:56.370Z,53.80
2023-05-24T07:13:56.451Z,52.71
2023-05-24T07:14:56.512Z,53.36
2023-05-24T07:15:56.596Z,53.66
2023-05-24T07:16:56.674Z,59.19
2023-05-24T07:17:56.801Z,63.58
2023-05-24T07:18:56.758Z,69.81
2023-05-24T07:19:56.898Z,73.75
2023-05-24T07:20:56.912Z,73.34
2023-05-24T07:21:56.946Z,79.90
2023-05-24T07:22:56.992Z,78.69
2023-05-24T07:23:57.017Z,81.96
2023-05-24T07:24:57.084Z,84.47
2023-05-24T07:25:57.109Z,81.52
2023-05-24T07:26:57.126Z,83.79
2023-05-24T07:27:57.166Z,85.48
2023-05-24T07:28:57.211Z,84.44
2023-05-24T07:29:57.240Z,77.84
2023-05-24T07:30:57.285Z,81.76
2023-05-24T07:31:57.334Z,82.43
2023-05-24T07:32:57.356Z,84.92
2023-05-24T07:33:57.352Z,85.26
2023-05-24T07:34:57.360Z,86.13
2023-05-24T07:35:57.431Z,81.90
2023-05-24T07:36:57.456Z,82.81
2023-05-24T07:37:57.497Z,82.61
2023-05-24T07:38:57.510Z,84.73
2023-05-24T07:39:57.543Z,85.72
2023-05-24T07:40:57.595Z,87.00
2023-05-24T07:41:57.567Z,86.76
2023-05-24T07:42:57.625Z,85.65
2023-05-24T07:43:57.612Z,86.71
2023-05-24T07:44:57.631Z,87.06
2023-05-24T07:45:57.717Z,85.15
2023-05-24T07:46:57.736Z,50.56
2023-05-24T07:47:57.828Z,27.73
2023-05-24T07:48:57.771Z,28.18
2023-05-24T07:49:57.831Z,27.36
2023-05-24T07:50:57.941Z,33.57
2023-05-24T07:51:57.914Z,37.62
2023-05-24T07:52:58.217Z,54.51
2023-05-24T07:53:58.008Z,63.91
2023-05-24T07:54:58.087Z,72.53
2023-05-24T07:55:58.086Z,79.21
2023-05-24T07:56:58.136Z,87.28
2023-05-24T07:57:58.116Z,69.51
2023-05-24T07:58:58.142Z,66.60
2023-05-24T07:59:58.167Z,62.19
2023-05-24T08:00:58.165Z,53.95
2023-05-24T08:01:58.194Z,53.22
2023-05-24T08:02:58.298Z,37.69
2023-05-24T08:03:58.406Z,52.34
2023-05-24T08:04:58.308Z,45.85
2023-05-24T08:05:58.381Z,32.02
2023-05-24T08:06:58.508Z,33.69
2023-05-24T08:07:58.453Z,27.25
2023-05-24T08:08:58.533Z,36.20
2023-05-24T08:09:58.560Z,32.10
2023-05-24T08:10:58.595Z,36.46
2023-05-24T08:11:58.560Z,40.47
2023-05-24T08:12:58.570Z,35.34
2023-05-24T08:13:58.582Z,51.87
2023-05-24T08:14:58.645Z,59.30
2023-05-24T08:15:58.726Z,68.21
2023-05-24T08:16:58.739Z,74.91
2023-05-24T08:17:58.823Z,78.92
2023-05-24T08:18:58.768Z,81.99
2023-05-24T08:19:58.820Z,84.19
2023-05-24T08:20:58.788Z,87.33
2023-05-24T08:21:58.855Z,92.78
2023-05-24T08:22:58.894Z,96.88
2023-05-24T08:23:58.974Z,98.61
2023-05-24T08:24:59.014Z,106.19
2023-05-24T08:25:59.049Z,106.26
2023-05-24T08:26:59.103Z,110.41
2023-05-24T08:27:59.147Z,115.17
2023-05-24T08:28:59.177Z,113.25
2023-05-24T08:29:59.206Z,114.92
2023-05-24T08:30:59.208Z,121.32
2023-05-24T08:31:59.277Z,128.31
2023-05-24T08:32:59.292Z,127.71
2023-05-24T08:33:59.239Z,130.08
2023-05-24T08:35:11.109Z,132.00
2023-05-24T08:36:00.284Z,132.24
2023-05-24T08:36:59.267Z,132.45
2023-05-24T08:37:59.253Z,132.86
2023-05-24T08:38:59.245Z,134.07
2023-05-24T08:39:59.208Z,138.32
2023-05-24T08:40:59.201Z,139.30
2023-05-24T08:42:59.267Z,144.75
2023-05-24T08:43:59.207Z,144.55
2023-05-24T08:44:59.210Z,143.61
2023-05-24T08:45:59.235Z,144.89
2023-05-24T08:46:59.227Z,145.57
2023-05-24T08:47:59.337Z,152.90
2023-05-24T08:48:59.227Z,158.58
2023-05-24T08:49:59.187Z,160.51
2023-05-24T08:50:59.208Z,159.87
2023-05-24T08:51:59.181Z,159.44
2023-05-24T08:52:59.132Z,155.38
2023-05-24T08:53:59.152Z,148.12
2023-05-24T08:54:59.173Z,144.27
2023-05-24T08:55:59.125Z,138.39
2023-05-24T08:56:59.148Z,137.34
2023-05-24T08:57:59.106Z,135.01
2023-05-24T08:58:59.111Z,134.36
2023-05-24T08:59:59.089Z,132.63
2023-05-24T09:00:59.133Z,131.44
2023-05-24T09:01:59.148Z,132.05
2023-05-24T09:02:59.141Z,136.00
2023-05-24T09:03:59.149Z,138.00
2023-05-24T09:04:59.062Z,136.67
2023-05-24T09:05:59.071Z,135.03
2023-05-24T09:06:59.071Z,132.72
2023-05-24T09:07:59.024Z,132.28
2023-05-24T09:08:59.036Z,130.55
2023-05-24T09:09:59.030Z,129.59
2023-05-24T09:10:59.189Z,128.41
2023-05-24T09:11:59.000Z,129.44
2023-05-24T09:12:59.034Z,128.86
2023-05-24T09:13:58.985Z,126.17
2023-05-24T09:14:58.974Z,127.12
2023-05-24T09:15:59.065Z,124.58
2023-05-24T09:16:58.963Z,125.49
2023-05-24T09:17:59.051Z,125.08
2023-05-24T09:18:58.965Z,126.15
2023-05-24T09:19:59.066Z,124.00
2023-05-24T09:20:59.011Z,122.18
2023-05-24T09:21:59.146Z,125.53
2023-05-24T09:22:58.940Z,125.81
2023-05-24T09:23:58.939Z,122.20
2023-05-24T09:24:58.902Z,120.20
2023-05-24T09:25:58.903Z,119.74
2023-05-24T09:26:58.897Z,122.83
2023-05-24T09:27:58.906Z,122.41
2023-05-24T09:28:58.891Z,123.25
2023-05-24T09:29:58.857Z,120.83
2023-05-24T09:30:58.924Z,119.19
2023-05-24T09:31:59.026Z,118.50
2023-05-24T09:32:58.900Z,116.48
2023-05-24T09:33:58.842Z,118.97
2023-05-24T09:34:58.827Z,114.86
2023-05-24T09:35:58.792Z,116.56
2023-05-24T09:36:58.824Z,120.71
2023-05-24T09:37:58.826Z,114.54
2023-05-24T09:38:58.778Z,117.75
2023-05-24T09:39:58.802Z,117.06
2023-05-24T09:40:58.787Z,117.73
2023-05-24T09:41:58.772Z,115.12
2023-05-24T09:42:58.776Z,112.60
2023-05-24T09:43:58.765Z,116.79
2023-05-24T09:44:58.742Z,114.69
2023-05-24T09:45:58.750Z,112.29
2023-05-24T09:46:58.797Z,114.49
2023-05-24T09:47:58.805Z,113.14
2023-05-24T09:48:58.761Z,112.72
2023-05-24T09:49:58.748Z,112.09
2023-05-24T09:50:58.774Z,112.13
2023-05-24T09:51:59.188Z,108.56
2023-05-24T09:52:58.675Z,112.75
2023-05-24T09:53:58.698Z,112.76
2023-05-24T09:54:58.670Z,111.14
2023-05-24T09:55:59.671Z,111.33
2023-05-24T09:56:58.637Z,110.95
2023-05-24T09:57:58.643Z,109.30
2023-05-24T09:58:58.644Z,111.95
2023-05-24T09:59:58.642Z,112.62
2023-05-24T10:00:58.856Z,106.89
2023-05-24T10:01:58.670Z,110.79
2023-05-24T10:02:58.649Z,111.05
2023-05-24T10:03:58.721Z,107.65
2023-05-24T10:04:58.722Z,109.21
2023-05-24T10:05:58.607Z,106.93
2023-05-24T10:06:58.657Z,106.19
2023-05-24T10:07:58.754Z,106.12
2023-05-24T10:08:58.766Z,104.69
2023-05-24T10:09:58.818Z,104.51
2023-05-24T10:10:58.867Z,107.07
2023-05-24T10:11:58.929Z,105.78
2023-05-24T10:12:58.915Z,102.16
2023-05-24T10:13:58.984Z,103.38
2023-05-24T10:14:59.052Z,101.46
2023-05-24T10:15:59.076Z,103.72
2023-05-24T10:16:59.279Z,101.60
2023-05-24T10:17:59.223Z,102.98
2023-05-24T10:18:59.235Z,104.67
2023-05-24T10:19:59.347Z,99.02
2023-05-24T10:20:59.443Z,102.39
2023-05-24T10:21:59.369Z,101.43
2023-05-24T10:22:59.467Z,103.65
2023-05-24T10:23:59.491Z,99.14
2023-05-24T10:24:59.524Z,98.25
2023-05-24T10:25:59.618Z,99.48
2023-05-24T10:26:59.669Z,99.44
2023-05-24T10:27:59.755Z,99.49
2023-05-24T10:28:59.760Z,98.87
2023-05-24T10:29:59.841Z,99.92
2023-05-24T10:30:59.950Z,97.11
2023-05-24T10:31:59.946Z,96.36
2023-05-24T10:33:00.164Z,97.30
2023-05-24T10:34:07.276Z,100.40
2023-05-24T10:35:01.104Z,100.55
2023-05-24T10:36:00.040Z,100.45
2023-05-24T10:37:00.041Z,99.56
2023-05-24T10:38:00.064Z,97.97
2023-05-24T10:39:00.022Z,99.09
2023-05-24T10:40:00.080Z,98.52
2023-05-24T10:41:00.035Z,97.96
2023-05-24T10:42:00.647Z,94.77
2023-05-24T10:43:00.088Z,92.21
2023-05-24T10:44:08.652Z,95.32
2023-05-24T10:45:01.164Z,95.56
2023-05-24T10:46:00.352Z,95.70
2023-05-24T10:47:00.183Z,95.89
2023-05-24T10:48:00.206Z,93.44
2023-05-24T10:49:00.177Z,96.42
2023-05-24T10:50:00.256Z,94.60
2023-05-24T10:51:00.138Z,96.57
2023-05-24T10:52:00.135Z,91.14
2023-05-24T10:53:00.200Z,91.13
2023-05-24T10:54:00.264Z,93.22
2023-05-24T10:55:04.301Z,93.97
2023-05-24T10:56:00.398Z,94.10
2023-05-24T10:57:00.335Z,92.70
2023-05-24T10:58:00.327Z,90.71
2023-05-24T10:59:00.367Z,92.44
2023-05-24T11:00:00.281Z,89.43
2023-05-24T11:01:00.314Z,87.08
2023-05-24T11:02:00.780Z,84.08
2023-05-24T11:03:00.324Z,84.07
2023-05-24T11:04:00.285Z,90.30
2023-05-24T11:05:00.346Z,84.93
2023-05-24T11:06:00.494Z,87.30
2023-05-24T11:07:00.352Z,86.26
2023-05-24T11:08:00.456Z,84.48
2023-05-24T11:09:00.544Z,84.67
2023-05-24T11:10:00.592Z,84.67
2023-05-24T11:11:11.522Z,86.36
2023-05-24T11:12:01.629Z,86.57
2023-05-24T11:13:00.637Z,87.07
2023-05-24T11:14:00.645Z,87.24
2023-05-24T11:15:00.626Z,87.66
2023-05-24T11:16:00.664Z,89.25
2023-05-24T11:17:00.592Z,88.42
2023-05-24T11:18:00.715Z,87.58
2023-05-24T11:19:00.637Z,87.33
2023-05-24T11:20:00.727Z,90.27
2023-05-24T11:21:00.764Z,89.33
2023-05-24T11:22:00.830Z,90.24
2023-05-24T11:23:00.876Z,88.90
2023-05-24T11:24:00.983Z,89.93
2023-05-24T11:25:00.991Z,87.12
2023-05-24T11:26:01.069Z,87.95
2023-05-24T11:27:01.148Z,90.16
2023-05-24T11:28:01.213Z,90.57
2023-05-24T11:29:04.167Z,88.31
2023-05-24T11:30:01.283Z,93.53
2023-05-24T11:31:01.231Z,92.01
2023-05-24T11:32:01.361Z,90.83
2023-05-24T11:33:01.270Z,89.58
2023-05-24T11:34:01.233Z,89.14
2023-05-24T11:35:01.199Z,88.78
2023-05-24T11:36:01.251Z,89.43
2023-05-24T11:37:01.246Z,89.91
2023-05-24T11:38:01.205Z,89.77
2023-05-24T11:39:01.180Z,87.38
2023-05-24T11:40:01.205Z,86.95
2023-05-24T11:41:01.198Z,89.08
2023-05-24T11:42:01.201Z,87.87
2023-05-24T11:43:01.225Z,84.87
2023-05-24T11:44:01.127Z,89.01
2023-05-24T11:45:01.133Z,89.31
2023-05-24T11:46:01.133Z,86.27
2023-05-24T11:47:01.162Z,87.41
2023-05-24T11:48:01.189Z,88.13
2023-05-24T11:49:01.152Z,88.73
2023-05-24T11:50:01.119Z,86.98
2023-05-24T11:51:01.118Z,89.25
2023-05-24T11:52:01.115Z,91.31
2023-05-24T11:53:01.155Z,87.49
2023-05-24T11:54:01.180Z,87.26
2023-05-24T11:55:01.221Z,85.21
2023-05-24T11:56:01.309Z,81.14
2023-05-24T11:57:01.368Z,78.72
2023-05-24T11:58:01.409Z,78.15
2023-05-24T11:59:01.477Z,74.46
2023-05-24T12:00:01.566Z,73.63
2023-05-24T12:01:01.617Z,72.37
2023-05-24T12:02:01.964Z,69.76
2023-05-24T12:03:01.866Z,69.00
2023-05-24T12:04:01.856Z,71.08
2023-05-24T12:05:01.995Z,68.58
2023-05-24T12:06:01.946Z,74.16
2023-05-24T12:07:01.958Z,73.38
2023-05-24T12:08:02.019Z,74.04
2023-05-24T12:09:02.097Z,74.39
2023-05-24T12:10:02.184Z,75.19
2023-05-24T12:11:02.223Z,75.50
2023-05-24T12:12:02.266Z,78.31
2023-05-24T12:13:02.306Z,77.97
2023-05-24T12:14:02.351Z,78.14
2023-05-24T12:15:02.462Z,75.98
2023-05-24T12:16:02.554Z,73.69
2023-05-24T12:17:02.528Z,76.32
2023-05-24T12:18:02.601Z,72.19
2023-05-24T12:19:07.396Z,77.78
2023-05-24T12:20:03.657Z,77.91
2023-05-24T12:21:02.584Z,77.99
2023-05-24T12:22:02.597Z,75.84
2023-05-24T12:23:02.596Z,77.97
2023-05-24T12:24:02.598Z,79.20
2023-05-24T12:25:02.662Z,77.50
2023-05-24T12:26:02.573Z,77.52
2023-05-24T12:27:02.584Z,76.54
2023-05-24T12:28:02.577Z,76.78
2023-05-24T12:29:02.676Z,78.52
2023-05-24T12:30:02.668Z,78.10
2023-05-24T12:31:02.764Z,77.05
2023-05-24T12:32:02.870Z,73.96
2023-05-24T12:33:02.918Z,75.48
2023-05-24T12:34:02.898Z,77.70
2023-05-24T12:35:02.936Z,76.70
2023-05-24T12:36:03.032Z,77.11
2023-05-24T12:37:03.236Z,72.89
2023-05-24T12:38:03.135Z,74.66
2023-05-24T12:39:03.155Z,76.34
2023-05-24T12:40:03.159Z,75.83
2023-05-24T12:41:13.081Z,77.56
2023-05-24T12:42:04.277Z,77.71
2023-05-24T12:43:03.180Z,76.03
2023-05-24T12:44:03.190Z,77.13
2023-05-24T12:45:03.170Z,72.77
2023-05-24T12:46:03.180Z,74.04
2023-05-24T12:47:03.202Z,72.83
2023-05-24T12:48:03.236Z,75.13
2023-05-24T12:49:03.151Z,73.87